首页
METAR-TAF:

METAR-TAF

机场 :

贝娜齐尔·布托国际机场

伊斯兰堡, 巴基斯坦

纬度: 33-37N, 经度: 073-06E, 海拔: 507米

当前天气观测

该预报发布于37分钟前的14:00 UTC
风速4节,风向
温度 23°C
湿度 41%
气压 1016 hPa
能见度10公里或以上
1500米以下无云,无积雨云

METAR: OPRN 231400Z 36004KT CAVOK 23/09 Q1016 NOSIG RMK A3002

时间: 19:37 (14:37 UTC)

预报

该预报发布于11小时和7分钟前的03:30 UTC
预报有效从23日的 06点(UTC)到 24日的 12点(UTC)
风速8节,风向南转西南
能见度10公里或以上
1500米以下无云,无积雨云
成为
从 23日的 15点(UTC)到 23日的 17点(UTC)
少量云层高于10000英尺
散云层高于20000英尺
短暂存在
从 24日的 02点(UTC)到 24日的 05点(UTC)
能見度: 5000

TAF: OPRN 230330Z 2306/2412 21008KT CAVOK BECMG 2315/2317 FEW100 SCT200 TEMPO 2402/2405 5000 HZ

超过4000个机场的气象观测和天气预报(METAR&TAF报告)。

可查询的气象台以黄色和红色小点在地图上表示。

将鼠标移到小点上方,可查看气象台名称。

然后点击查看天气观测和预报。

如需切换地图:点击带黑十字的绿色按钮放大地图;点击带横线的绿色按钮缩小地图;或者点击绿色箭头查看邻近地区的地图。


METAR-TAF: